Time;durP1;ratioP1;P1;durP2;ratioP2;P2;SDS_P1;SDS_P2;PMS_P1;PMS_P2;Temp;Humidity;BMP_temperature;BMP_pressure;BME280_temperature;BME280_humidity;BME280_pressure;Samples;Min_cycle;Max_cycle;Signal;HPM_P1;HPM_P2
2022/12/18 00:00:21;;;;;;;;;;;-5.60;99.90;;;;;;5028614;28;19913;-74
2022/12/18 00:02:47;;;;;;;;;;;-5.60;99.90;;;;;;5016594;28;19951;-71
2022/12/18 00:05:12;;;;;;;;;;;-5.70;99.90;;;;;;5026675;28;20002;-72
2022/12/18 00:07:38;;;;;;;;;;;-5.80;99.90;;;;;;4993085;28;20334;-65
2022/12/18 00:10:04;;;;;;;;;;;-5.70;99.90;;;;;;5008730;28;19913;-64
2022/12/18 00:12:30;;;;;;;;;;;-5.70;99.90;;;;;;5014595;28;20303;-64
2022/12/18 00:14:55;;;;;;;;;;;-5.80;99.90;;;;;;5026754;28;19913;-64
2022/12/18 00:17:21;;;;;;;;;;;-5.70;99.90;;;;;;5009041;28;19916;-64
2022/12/18 00:19:46;;;;;;;;;;;-5.90;99.90;;;;;;5026788;28;19963;-64
2022/12/18 00:22:12;;;;;;;;;;;-5.80;99.90;;;;;;5026472;28;19948;-64
2022/12/18 00:24:38;;;;;;;;;;;-6.00;99.90;;;;;;5019539;28;19917;-64
2022/12/18 00:27:03;;;;;;;;;;;-5.90;99.90;;;;;;5025638;28;19913;-64
2022/12/18 00:29:29;;;;;;;;;;;-5.90;99.90;;;;;;5027107;28;20390;-63
2022/12/18 00:31:55;;;;;;;;;;;-5.90;99.90;;;;;;5019992;28;20005;-64
2022/12/18 00:34:20;;;;;;;;;;;-6.00;99.90;;;;;;5026370;28;20310;-63
2022/12/18 00:36:47;;;;;;;;;;;-6.00;99.90;;;;;;5024881;28;19924;-64
2022/12/18 00:39:12;;;;;;;;;;;-6.00;99.90;;;;;;5027048;28;19928;-64
2022/12/18 00:44:22;;;;;;;;;;;-5.90;99.90;;;;;;5021042;28;19921;-63
2022/12/18 00:46:53;;;;;;;;;;;-5.90;99.90;;;;;;5022452;28;19913;-63
2022/12/18 00:49:19;;;;;;;;;;;-5.90;99.90;;;;;;5025376;28;20235;-64
2022/12/18 00:51:45;;;;;;;;;;;-5.80;99.90;;;;;;5025414;28;19913;-65
2022/12/18 00:54:10;;;;;;;;;;;-5.80;99.90;;;;;;5008658;28;19913;-64
2022/12/18 00:56:37;;;;;;;;;;;-6.10;99.90;;;;;;5018749;28;19970;-63
2022/12/18 00:59:05;;;;;;;;;;;-6.30;99.90;;;;;;5025596;28;19929;-64
2022/12/18 01:01:32;;;;;;;;;;;-6.20;99.90;;;;;;5023748;28;20016;-65
2022/12/18 01:03:58;;;;;;;;;;;-6.20;99.90;;;;;;4992229;28;19913;-64
2022/12/18 01:06:24;;;;;;;;;;;-6.20;99.90;;;;;;5025454;28;19940;-65
2022/12/18 01:08:50;;;;;;;;;;;-6.20;99.90;;;;;;5025209;28;20319;-66
2022/12/18 01:11:16;;;;;;;;;;;-6.40;99.90;;;;;;5023803;28;19917;-65
2022/12/18 01:13:45;;;;;;;;;;;-6.30;99.90;;;;;;5008417;28;20405;-65
2022/12/18 01:16:11;;;;;;;;;;;-6.20;99.90;;;;;;5008892;28;19917;-65
2022/12/18 01:18:37;;;;;;;;;;;-6.30;99.90;;;;;;4999770;28;19917;-64
2022/12/18 01:21:06;;;;;;;;;;;-6.40;99.90;;;;;;5011071;28;19939;-64
2022/12/18 01:23:32;;;;;;;;;;;-6.50;99.90;;;;;;5031363;28;20536;-63
2022/12/18 01:25:58;;;;;;;;;;;-6.40;99.90;;;;;;5019277;28;20344;-63
2022/12/18 01:28:23;;;;;;;;;;;-6.40;99.90;;;;;;5019126;28;19991;-63
2022/12/18 01:30:49;;;;;;;;;;;-6.40;99.90;;;;;;5025351;28;19918;-63
2022/12/18 01:33:16;;;;;;;;;;;-6.40;99.90;;;;;;5028935;28;19920;-65
2022/12/18 01:35:43;;;;;;;;;;;-6.50;99.90;;;;;;5014349;28;19921;-63
2022/12/18 01:38:09;;;;;;;;;;;-6.40;99.90;;;;;;5010015;28;20530;-63
2022/12/18 01:40:34;;;;;;;;;;;-6.40;99.90;;;;;;5027437;28;19924;-65
2022/12/18 01:43:00;;;;;;;;;;;-6.30;99.90;;;;;;5018616;28;19913;-64
2022/12/18 01:45:29;;;;;;;;;;;-6.40;99.90;;;;;;5028056;28;19920;-65
2022/12/18 01:47:56;;;;;;;;;;;-6.30;99.90;;;;;;5023233;28;19912;-65
2022/12/18 01:50:23;;;;;;;;;;;-6.30;99.90;;;;;;5011819;28;19913;-65
2022/12/18 01:52:50;;;;;;;;;;;-6.50;99.90;;;;;;5010024;28;20004;-65
2022/12/18 01:55:17;;;;;;;;;;;-6.40;99.90;;;;;;5027998;28;20238;-65
2022/12/18 01:57:42;;;;;;;;;;;-6.40;99.90;;;;;;5028909;28;19947;-66
2022/12/18 02:00:10;;;;;;;;;;;-6.30;99.90;;;;;;5029036;28;19967;-66
2022/12/18 02:02:35;;;;;;;;;;;-6.20;99.90;;;;;;5027380;28;20319;-62
2022/12/18 02:05:02;;;;;;;;;;;-6.30;99.90;;;;;;5011374;28;19932;-63
2022/12/18 02:07:27;;;;;;;;;;;-6.30;99.90;;;;;;5022734;28;19917;-63
2022/12/18 02:09:59;;;;;;;;;;;-6.30;99.90;;;;;;5027558;28;19924;-64
2022/12/18 02:12:25;;;;;;;;;;;-6.30;99.90;;;;;;5010783;28;19944;-64
2022/12/18 02:15:00;;;;;;;;;;;-6.40;99.90;;;;;;5029220;28;19963;-63
2022/12/18 02:17:43;;;;;;;;;;;-6.40;99.90;;;;;;5027798;28;20604;-64
2022/12/18 02:20:08;;;;;;;;;;;-6.50;99.90;;;;;;5017609;28;19920;-64
2022/12/18 02:22:34;;;;;;;;;;;-6.50;99.90;;;;;;5027389;28;19913;-64
2022/12/18 02:25:09;;;;;;;;;;;-6.70;99.90;;;;;;5027192;28;20322;-64
2022/12/18 02:27:34;;;;;;;;;;;-6.60;99.90;;;;;;5027648;28;19913;-64
2022/12/18 02:30:00;;;;;;;;;;;-6.60;99.90;;;;;;5001055;28;19924;-64
2022/12/18 02:32:27;;;;;;;;;;;-6.70;99.90;;;;;;5023838;28;19924;-64
2022/12/18 02:34:53;;;;;;;;;;;-6.60;99.90;;;;;;5010742;28;20318;-64
2022/12/18 02:37:18;;;;;;;;;;;-6.60;99.90;;;;;;5027170;28;19947;-64
2022/12/18 02:39:44;;;;;;;;;;;-6.60;99.90;;;;;;5001825;28;20649;-65
2022/12/18 02:42:10;;;;;;;;;;;-6.60;99.90;;;;;;5027075;28;19921;-64
2022/12/18 02:44:43;;;;;;;;;;;-6.60;99.90;;;;;;5027823;28;20004;-64
2022/12/18 02:47:09;;;;;;;;;;;-6.60;99.90;;;;;;5010780;28;19951;-64
2022/12/18 02:49:48;;;;;;;;;;;-6.70;99.90;;;;;;5028490;28;20031;-64
2022/12/18 02:52:33;;;;;;;;;;;-6.70;99.90;;;;;;5031047;28;19913;-64
2022/12/18 02:55:18;;;;;;;;;;;-6.80;99.90;;;;;;5029520;28;19913;-63
2022/12/18 02:57:47;;;;;;;;;;;-6.70;99.90;;;;;;5031573;28;19916;-64
2022/12/18 03:00:14;;;;;;;;;;;-6.60;99.90;;;;;;5008519;28;19944;-64
2022/12/18 03:02:44;;;;;;;;;;;-6.80;99.90;;;;;;5030343;28;19956;-63
2022/12/18 03:05:16;;;;;;;;;;;-6.90;99.90;;;;;;5027898;28;19917;-63
2022/12/18 03:07:58;;;;;;;;;;;-7.00;99.90;;;;;;5030128;28;19971;-64
2022/12/18 03:10:26;;;;;;;;;;;-6.90;99.90;;;;;;5027840;28;20006;-64
2022/12/18 03:12:53;;;;;;;;;;;-7.00;99.90;;;;;;5030032;28;20251;-63
2022/12/18 03:15:19;;;;;;;;;;;-7.00;99.90;;;;;;5012604;28;20254;-64
2022/12/18 03:17:46;;;;;;;;;;;-7.00;99.90;;;;;;5026221;28;19917;-64
2022/12/18 03:20:12;;;;;;;;;;;-6.80;99.90;;;;;;5030024;28;19917;-64
2022/12/18 03:22:38;;;;;;;;;;;-6.70;99.90;;;;;;5012556;28;19913;-64
2022/12/18 03:25:05;;;;;;;;;;;-6.70;99.90;;;;;;5009035;28;19913;-64
2022/12/18 03:27:31;;;;;;;;;;;-6.70;99.90;;;;;;5030364;28;20342;-64
2022/12/18 03:30:07;;;;;;;;;;;-6.80;99.90;;;;;;5007988;28;19909;-64
2022/12/18 03:32:51;;;;;;;;;;;-6.80;99.90;;;;;;5027363;28;19917;-64
2022/12/18 03:35:19;;;;;;;;;;;-6.70;99.90;;;;;;5030680;28;20007;-64
2022/12/18 03:37:44;;;;;;;;;;;-6.60;99.90;;;;;;5025682;28;20335;-64
2022/12/18 03:40:10;;;;;;;;;;;-6.60;99.90;;;;;;5014394;28;20015;-63
2022/12/18 03:42:36;;;;;;;;;;;-6.50;99.90;;;;;;5033222;28;19983;-64
2022/12/18 03:45:20;;;;;;;;;;;-6.50;99.90;;;;;;5031075;28;19940;-64
2022/12/18 03:47:54;;;;;;;;;;;-6.50;99.90;;;;;;5023687;28;19920;-64
2022/12/18 03:50:21;;;;;;;;;;;-6.60;99.90;;;;;;5013134;28;20004;-64
2022/12/18 03:52:52;;;;;;;;;;;-6.50;99.90;;;;;;5005195;28;19929;-64
2022/12/18 03:55:18;;;;;;;;;;;-6.50;99.90;;;;;;5012368;28;20005;-65
2022/12/18 03:57:43;;;;;;;;;;;-6.50;99.90;;;;;;5005767;28;20004;-64
2022/12/18 04:00:10;;;;;;;;;;;-6.50;99.90;;;;;;5029619;28;19912;-65
2022/12/18 04:02:36;;;;;;;;;;;-6.50;99.90;;;;;;5028795;28;19913;-65
2022/12/18 04:05:02;;;;;;;;;;;-6.50;99.90;;;;;;5020286;28;19971;-65
2022/12/18 04:07:28;;;;;;;;;;;-6.50;99.90;;;;;;5004133;28;19913;-64
2022/12/18 04:09:54;;;;;;;;;;;-6.50;99.90;;;;;;5012772;28;19912;-64
2022/12/18 04:12:20;;;;;;;;;;;-6.50;99.90;;;;;;5013268;28;19919;-65
2022/12/18 04:14:46;;;;;;;;;;;-6.60;99.90;;;;;;5009136;28;20573;-65
2022/12/18 04:17:11;;;;;;;;;;;-6.60;99.90;;;;;;5029601;28;19916;-64
2022/12/18 04:19:37;;;;;;;;;;;-6.60;99.90;;;;;;5018943;28;19920;-64
2022/12/18 04:22:02;;;;;;;;;;;-6.70;99.90;;;;;;4997597;28;19913;-64
2022/12/18 04:24:28;;;;;;;;;;;-6.70;99.90;;;;;;5029261;28;19913;-64
2022/12/18 04:26:54;;;;;;;;;;;-6.70;99.90;;;;;;5006763;28;20710;-64
2022/12/18 04:29:19;;;;;;;;;;;-6.80;99.90;;;;;;4994317;28;19917;-64
2022/12/18 04:31:45;;;;;;;;;;;-6.80;99.90;;;;;;5028728;28;19921;-64
2022/12/18 04:34:11;;;;;;;;;;;-6.80;99.90;;;;;;5028449;28;19913;-64
2022/12/18 04:36:36;;;;;;;;;;;-6.80;99.90;;;;;;5028974;28;19996;-64
2022/12/18 04:39:02;;;;;;;;;;;-6.80;99.90;;;;;;5028329;28;20441;-65
2022/12/18 04:41:28;;;;;;;;;;;-6.90;99.90;;;;;;5029334;28;19920;-64
2022/12/18 04:43:53;;;;;;;;;;;-6.80;99.90;;;;;;5025988;28;19919;-64
2022/12/18 04:46:19;;;;;;;;;;;-6.90;99.90;;;;;;5025138;28;19952;-65
2022/12/18 04:48:45;;;;;;;;;;;-6.90;99.90;;;;;;5029761;28;20311;-64
2022/12/18 04:51:11;;;;;;;;;;;-6.90;99.90;;;;;;5027831;28;19920;-65
2022/12/18 04:53:36;;;;;;;;;;;-6.80;99.90;;;;;;5029801;28;19912;-64
2022/12/18 04:56:05;;;;;;;;;;;-6.90;99.90;;;;;;5028624;28;19917;-64
2022/12/18 04:58:31;;;;;;;;;;;-6.90;99.90;;;;;;5027106;28;20010;-64
2022/12/18 05:00:57;;;;;;;;;;;-6.90;99.90;;;;;;4995135;28;20540;-64
2022/12/18 05:03:22;;;;;;;;;;;-6.90;99.90;;;;;;5028336;28;20539;-65
2022/12/18 05:05:51;;;;;;;;;;;-6.90;99.90;;;;;;5026647;28;20327;-64
2022/12/18 05:08:17;;;;;;;;;;;-6.90;99.90;;;;;;4993677;28;19956;-64
2022/12/18 05:10:43;;;;;;;;;;;-6.90;99.90;;;;;;5028162;28;19917;-64
2022/12/18 05:13:09;;;;;;;;;;;-6.90;99.90;;;;;;5028045;28;19913;-64
2022/12/18 05:15:34;;;;;;;;;;;-7.00;99.90;;;;;;5026926;28;19909;-65
2022/12/18 05:18:00;;;;;;;;;;;-7.00;99.90;;;;;;5028333;28;20291;-64
2022/12/18 05:20:26;;;;;;;;;;;-7.00;99.90;;;;;;5028121;28;20028;-64
2022/12/18 05:22:51;;;;;;;;;;;-7.00;99.90;;;;;;5028065;28;20111;-64
2022/12/18 05:25:17;;;;;;;;;;;-7.10;99.90;;;;;;5010412;28;19924;-64
2022/12/18 05:27:43;;;;;;;;;;;-7.10;99.90;;;;;;5024183;28;20012;-64
2022/12/18 05:30:09;;;;;;;;;;;-7.00;99.90;;;;;;5027595;28;19920;-64
2022/12/18 05:32:34;;;;;;;;;;;-7.00;99.90;;;;;;5025510;28;20315;-64
2022/12/18 05:35:00;;;;;;;;;;;-6.90;99.90;;;;;;5028021;28;19913;-64
2022/12/18 05:37:26;;;;;;;;;;;-7.00;99.90;;;;;;5027892;28;19967;-64
2022/12/18 05:39:51;;;;;;;;;;;-7.10;99.90;;;;;;5027604;28;19913;-64
2022/12/18 05:42:17;;;;;;;;;;;-7.20;99.90;;;;;;5026009;28;19919;-64
2022/12/18 05:44:43;;;;;;;;;;;-7.10;99.90;;;;;;5028572;28;20077;-64
2022/12/18 05:47:09;;;;;;;;;;;-7.20;99.90;;;;;;5029201;28;19908;-65
2022/12/18 05:49:34;;;;;;;;;;;-7.20;99.90;;;;;;5028189;28;19909;-64
2022/12/18 05:52:00;;;;;;;;;;;-7.20;99.90;;;;;;5011884;28;20278;-64
2022/12/18 05:54:28;;;;;;;;;;;-7.20;99.90;;;;;;5012229;28;19986;-64
2022/12/18 05:56:54;;;;;;;;;;;-7.40;99.90;;;;;;5011292;28;19921;-65
2022/12/18 05:59:20;;;;;;;;;;;-7.30;99.90;;;;;;5026376;28;19917;-64
2022/12/18 06:01:45;;;;;;;;;;;-7.30;99.90;;;;;;5025398;28;19966;-64
2022/12/18 06:04:11;;;;;;;;;;;-7.20;99.90;;;;;;5028546;28;19956;-65
2022/12/18 06:06:37;;;;;;;;;;;-7.30;99.90;;;;;;5028727;28;19913;-64
2022/12/18 06:09:07;;;;;;;;;;;-7.30;99.90;;;;;;5011363;28;20290;-64
2022/12/18 06:11:33;;;;;;;;;;;-7.20;99.90;;;;;;5027624;28;19913;-64
2022/12/18 06:13:59;;;;;;;;;;;-7.30;99.90;;;;;;5026680;28;19920;-64
2022/12/18 06:16:25;;;;;;;;;;;-7.30;99.90;;;;;;5011496;28;20609;-64
2022/12/18 06:18:51;;;;;;;;;;;-7.40;99.90;;;;;;5021815;28;19925;-64
2022/12/18 06:21:16;;;;;;;;;;;-7.50;99.90;;;;;;5027518;28;19917;-64
2022/12/18 06:23:42;;;;;;;;;;;-7.50;99.90;;;;;;5024357;28;19913;-64
2022/12/18 06:26:08;;;;;;;;;;;-7.50;99.90;;;;;;5031729;28;19967;-65
2022/12/18 06:28:34;;;;;;;;;;;-7.50;99.90;;;;;;5031951;28;19967;-65
2022/12/18 06:30:59;;;;;;;;;;;-7.50;99.90;;;;;;5033113;28;19921;-64
2022/12/18 06:33:26;;;;;;;;;;;-7.50;99.90;;;;;;5032520;28;20604;-64
2022/12/18 06:35:52;;;;;;;;;;;-7.50;99.90;;;;;;5030184;28;19917;-64
2022/12/18 06:38:19;;;;;;;;;;;-7.40;99.90;;;;;;5014976;28;19916;-64
2022/12/18 06:40:44;;;;;;;;;;;-7.40;99.90;;;;;;5030027;28;20581;-64
2022/12/18 06:43:10;;;;;;;;;;;-7.30;99.90;;;;;;5024571;28;19920;-64
2022/12/18 06:45:36;;;;;;;;;;;-7.40;99.90;;;;;;5032336;28;19908;-63
2022/12/18 06:48:01;;;;;;;;;;;-7.40;99.90;;;;;;5010677;28;19917;-65
2022/12/18 06:50:27;;;;;;;;;;;-7.30;99.90;;;;;;5032126;28;19919;-64
2022/12/18 06:52:56;;;;;;;;;;;-7.30;99.90;;;;;;5014595;28;19917;-64
2022/12/18 06:55:21;;;;;;;;;;;-7.20;99.90;;;;;;5031762;28;20259;-64
2022/12/18 06:57:47;;;;;;;;;;;-7.20;99.90;;;;;;5007815;28;19928;-65
2022/12/18 07:00:13;;;;;;;;;;;-7.20;99.90;;;;;;5030916;28;19955;-65
2022/12/18 07:02:39;;;;;;;;;;;-7.10;99.90;;;;;;5011245;28;19909;-64
2022/12/18 07:05:04;;;;;;;;;;;-7.10;99.90;;;;;;5031931;28;20242;-64
2022/12/18 07:07:30;;;;;;;;;;;-7.10;99.90;;;;;;5030894;28;19917;-64
2022/12/18 07:09:56;;;;;;;;;;;-7.10;99.90;;;;;;5030280;28;20302;-65
2022/12/18 07:12:21;;;;;;;;;;;-7.10;99.90;;;;;;5031618;28;19959;-64
2022/12/18 07:14:47;;;;;;;;;;;-7.00;99.90;;;;;;5029316;28;19909;-64
2022/12/18 07:17:12;;;;;;;;;;;-7.00;99.90;;;;;;5010939;28;19927;-65
2022/12/18 07:19:38;;;;;;;;;;;-7.00;99.90;;;;;;5024676;28;19979;-65
2022/12/18 07:22:04;;;;;;;;;;;-7.00;99.90;;;;;;5014504;28;19920;-66
2022/12/18 07:24:29;;;;;;;;;;;-7.00;99.90;;;;;;5029383;28;19976;-64
2022/12/18 07:26:55;;;;;;;;;;;-7.00;99.90;;;;;;5013848;28;20295;-65
2022/12/18 07:29:21;;;;;;;;;;;-7.00;99.90;;;;;;5024976;28;19914;-65
2022/12/18 07:31:46;;;;;;;;;;;-7.10;99.90;;;;;;5029652;28;20319;-65
2022/12/18 07:34:12;;;;;;;;;;;-7.00;99.90;;;;;;5013302;28;20021;-64
2022/12/18 07:36:38;;;;;;;;;;;-7.00;99.90;;;;;;5016335;28;19952;-65
2022/12/18 07:39:04;;;;;;;;;;;-7.00;99.90;;;;;;5024527;28;20404;-68
2022/12/18 07:41:29;;;;;;;;;;;-7.00;99.90;;;;;;5029679;28;20471;-66
2022/12/18 07:43:55;;;;;;;;;;;-7.00;99.90;;;;;;5026714;28;19920;-66
2022/12/18 07:46:20;;;;;;;;;;;-7.20;99.90;;;;;;5030067;28;19948;-66
2022/12/18 07:48:46;;;;;;;;;;;-7.20;99.90;;;;;;5020815;28;20365;-65
2022/12/18 07:51:12;;;;;;;;;;;-7.10;99.90;;;;;;5009510;28;19920;-65
2022/12/18 07:53:38;;;;;;;;;;;-7.10;99.90;;;;;;5030361;28;20324;-65
2022/12/18 07:56:05;;;;;;;;;;;-7.10;99.90;;;;;;5020191;28;19913;-67
2022/12/18 07:58:30;;;;;;;;;;;-7.10;99.90;;;;;;5014352;28;20204;-66
2022/12/18 08:01:06;;;;;;;;;;;-7.10;99.90;;;;;;5013393;28;19963;-65
2022/12/18 08:03:31;;;;;;;;;;;-7.10;99.90;;;;;;5030913;28;19913;-64
2022/12/18 08:06:01;;;;;;;;;;;-7.10;99.90;;;;;;5014052;28;19920;-64
2022/12/18 08:08:26;;;;;;;;;;;-7.20;99.90;;;;;;5002646;28;20282;-64
2022/12/18 08:10:52;;;;;;;;;;;-7.20;99.90;;;;;;5008070;28;20088;-64
2022/12/18 08:13:19;;;;;;;;;;;-7.20;99.90;;;;;;5024681;28;20320;-65
2022/12/18 08:15:45;;;;;;;;;;;-7.10;99.90;;;;;;5013762;28;19921;-64
2022/12/18 08:18:11;;;;;;;;;;;-7.10;99.90;;;;;;5028733;28;19928;-65
2022/12/18 08:20:36;;;;;;;;;;;-7.00;99.90;;;;;;5030858;28;20401;-65
2022/12/18 08:23:02;;;;;;;;;;;-7.00;99.90;;;;;;5010924;28;19917;-65
2022/12/18 08:25:28;;;;;;;;;;;-6.90;99.90;;;;;;5030959;28;20006;-64
2022/12/18 08:27:53;;;;;;;;;;;-6.90;99.90;;;;;;5014013;28;19913;-64
2022/12/18 08:30:19;;;;;;;;;;;-6.80;99.90;;;;;;5007330;28;19931;-64
2022/12/18 08:32:45;;;;;;;;;;;-6.80;99.90;;;;;;5029968;28;20011;-65
2022/12/18 08:35:11;;;;;;;;;;;-6.70;99.90;;;;;;5029843;28;20386;-67
2022/12/18 08:37:37;;;;;;;;;;;-6.60;99.90;;;;;;5012219;28;19920;-64
2022/12/18 08:40:03;;;;;;;;;;;-6.60;99.90;;;;;;5012905;28;19992;-64
2022/12/18 08:45:14;;;;;;;;;;;-6.40;99.90;;;;;;5030459;28;19916;-64
2022/12/18 08:47:40;;;;;;;;;;;-6.40;99.90;;;;;;5008509;28;19979;-64
2022/12/18 08:50:05;;;;;;;;;;;-6.40;99.90;;;;;;5029352;28;20161;-64
2022/12/18 08:52:32;;;;;;;;;;;-6.40;99.90;;;;;;5028041;28;20208;-65
2022/12/18 08:54:57;;;;;;;;;;;-6.30;99.90;;;;;;5029509;28;19912;-63
2022/12/18 08:57:23;;;;;;;;;;;-6.30;99.90;;;;;;5027474;28;19962;-64
2022/12/18 08:59:49;;;;;;;;;;;-6.30;99.90;;;;;;5029262;28;19912;-64
2022/12/18 09:02:14;;;;;;;;;;;-6.20;99.90;;;;;;5024363;28;19913;-64
2022/12/18 09:04:40;;;;;;;;;;;-6.20;99.90;;;;;;5030243;28;19913;-64
2022/12/18 09:07:06;;;;;;;;;;;-6.20;99.90;;;;;;5036623;28;19924;-65
2022/12/18 09:09:31;;;;;;;;;;;-6.10;99.90;;;;;;5025808;28;19913;-64
2022/12/18 09:11:57;;;;;;;;;;;-6.10;99.90;;;;;;5026012;28;19913;-64
2022/12/18 09:14:22;;;;;;;;;;;-6.00;99.90;;;;;;5027720;28;19968;-64
2022/12/18 09:16:48;;;;;;;;;;;-6.00;99.90;;;;;;5029072;28;19913;-64
2022/12/18 09:19:14;;;;;;;;;;;-5.90;99.90;;;;;;5029468;28;19917;-64
2022/12/18 09:21:39;;;;;;;;;;;-5.90;99.90;;;;;;5027067;28;19912;-64
2022/12/18 09:24:05;;;;;;;;;;;-5.80;99.90;;;;;;5029450;28;19913;-64
2022/12/18 09:26:31;;;;;;;;;;;-5.60;99.90;;;;;;5028953;28;19924;-65
2022/12/18 09:28:56;;;;;;;;;;;-5.50;99.90;;;;;;5025738;28;19932;-64
2022/12/18 09:31:22;;;;;;;;;;;-5.40;99.90;;;;;;5029471;28;19924;-64
2022/12/18 09:33:48;;;;;;;;;;;-5.30;99.90;;;;;;5027073;28;19909;-64
2022/12/18 09:36:14;;;;;;;;;;;-5.20;99.90;;;;;;5029575;28;20277;-64
2022/12/18 09:38:40;;;;;;;;;;;-5.00;99.90;;;;;;5029362;28;20043;-64
2022/12/18 09:41:15;;;;;;;;;;;-4.80;99.90;;;;;;5029679;28;20004;-64
2022/12/18 09:43:43;;;;;;;;;;;-4.70;99.90;;;;;;5024552;28;20223;-64
2022/12/18 09:46:10;;;;;;;;;;;-4.50;99.90;;;;;;5034545;28;19969;-64
2022/12/18 09:48:37;;;;;;;;;;;-4.30;99.90;;;;;;5017950;28;20299;-63
2022/12/18 09:51:17;;;;;;;;;;;-4.10;99.90;;;;;;5010163;28;19948;-65
2022/12/18 09:53:44;;;;;;;;;;;-3.90;99.90;;;;;;5028705;28;19917;-63
2022/12/18 09:56:12;;;;;;;;;;;-3.80;99.90;;;;;;5015240;28;19913;-64
2022/12/18 09:59:04;;;;;;;;;;;-3.60;99.90;;;;;;5029588;28;19971;-64
2022/12/18 10:01:31;;;;;;;;;;;-3.50;99.90;;;;;;5033673;28;19916;-63
2022/12/18 10:03:57;;;;;;;;;;;-3.40;99.90;;;;;;5032805;28;20334;-64
2022/12/18 10:06:26;;;;;;;;;;;-3.30;99.90;;;;;;5022811;28;19917;-64
2022/12/18 10:08:54;;;;;;;;;;;-3.20;99.90;;;;;;5033094;28;19913;-63
2022/12/18 10:11:22;;;;;;;;;;;-3.00;99.90;;;;;;5032990;28;19921;-63
2022/12/18 10:13:50;;;;;;;;;;;-2.80;99.90;;;;;;5017732;28;19913;-63
2022/12/18 10:16:17;;;;;;;;;;;-2.70;99.90;;;;;;5028715;28;19909;-64
2022/12/18 10:18:59;;;;;;;;;;;-2.50;99.90;;;;;;5031933;28;20273;-64
2022/12/18 10:21:32;;;;;;;;;;;-2.40;99.90;;;;;;5028406;28;19914;-64
2022/12/18 10:23:57;;;;;;;;;;;-2.20;99.90;;;;;;5030579;28;19913;-64
2022/12/18 10:26:23;;;;;;;;;;;-2.10;99.90;;;;;;5032796;28;19913;-64
2022/12/18 10:28:49;;;;;;;;;;;-1.90;99.90;;;;;;5012796;28;19917;-64
2022/12/18 10:31:18;;;;;;;;;;;-1.80;99.90;;;;;;5032287;28;19913;-64
2022/12/18 10:33:44;;;;;;;;;;;-1.70;99.90;;;;;;5031913;28;19996;-65
2022/12/18 10:36:10;;;;;;;;;;;-1.70;99.90;;;;;;5032979;28;20012;-65
2022/12/18 10:38:38;;;;;;;;;;;-1.60;99.90;;;;;;5032428;28;19963;-65
2022/12/18 10:41:04;;;;;;;;;;;-1.40;99.90;;;;;;5017391;28;19943;-65
2022/12/18 10:43:33;;;;;;;;;;;-1.20;99.90;;;;;;5026011;28;20331;-65
2022/12/18 10:46:12;;;;;;;;;;;-1.10;99.90;;;;;;5032571;28;19913;-65
2022/12/18 10:48:47;;;;;;;;;;;-1.00;99.90;;;;;;5032308;28;19925;-66
2022/12/18 10:51:19;;;;;;;;;;;-0.80;99.90;;;;;;5029381;28;20324;-64
2022/12/18 10:53:47;;;;;;;;;;;-0.60;99.90;;;;;;5031344;28;19913;-65
2022/12/18 10:56:13;;;;;;;;;;;-0.40;99.90;;;;;;5029439;28;20322;-65
2022/12/18 10:58:39;;;;;;;;;;;-0.20;99.90;;;;;;5026425;28;19916;-65
2022/12/18 11:01:22;;;;;;;;;;;0.00;99.90;;;;;;5031728;28;20323;-65
2022/12/18 11:03:54;;;;;;;;;;;0.20;99.90;;;;;;5013851;28;19913;-65
2022/12/18 11:06:24;;;;;;;;;;;0.60;99.90;;;;;;5031372;28;19956;-66
2022/12/18 11:09:06;;;;;;;;;;;0.80;99.90;;;;;;5024094;28;20649;-65
2022/12/18 11:11:35;;;;;;;;;;;0.70;99.90;;;;;;5025433;28;20370;-65
2022/12/18 11:14:04;;;;;;;;;;;0.80;99.90;;;;;;5031588;28;20255;-65
2022/12/18 11:16:30;;;;;;;;;;;0.80;99.90;;;;;;5031323;28;20329;-65
2022/12/18 11:19:08;;;;;;;;;;;0.80;99.90;;;;;;5008308;28;19928;-65
2022/12/18 11:21:39;;;;;;;;;;;0.70;99.90;;;;;;5028290;28;19916;-72
2022/12/18 11:24:04;;;;;;;;;;;1.00;99.90;;;;;;5030396;28;19963;-72
2022/12/18 11:26:35;;;;;;;;;;;1.10;99.90;;;;;;5030794;28;19956;-73
2022/12/18 11:29:08;;;;;;;;;;;1.40;99.90;;;;;;5012899;28;19917;-72
2022/12/18 11:31:37;;;;;;;;;;;2.10;99.90;;;;;;5030144;28;19913;-73
2022/12/18 11:34:16;;;;;;;;;;;2.20;99.90;;;;;;5030082;28;20236;-73
2022/12/18 11:36:46;;;;;;;;;;;2.30;99.90;;;;;;5032043;28;19912;-72
2022/12/18 11:39:36;;;;;;;;;;;2.20;99.90;;;;;;5028211;28;19931;-72
2022/12/18 11:42:11;;;;;;;;;;;1.90;99.90;;;;;;5028078;28;19994;-73
2022/12/18 11:44:46;;;;;;;;;;;1.70;99.90;;;;;;5015317;28;19913;-73
2022/12/18 11:47:15;;;;;;;;;;;1.50;99.90;;;;;;5031569;28;20242;-73
2022/12/18 11:49:42;;;;;;;;;;;1.40;99.90;;;;;;5027307;28;20334;-74
2022/12/18 11:52:23;;;;;;;;;;;1.60;99.90;;;;;;5030422;28;19971;-72
2022/12/18 11:54:53;;;;;;;;;;;1.60;99.90;;;;;;5021339;28;19992;-73
2022/12/18 11:57:28;;;;;;;;;;;1.70;99.90;;;;;;5027316;28;19921;-72
2022/12/18 12:00:04;;;;;;;;;;;1.90;99.90;;;;;;5030957;28;19924;-72
2022/12/18 12:02:42;;;;;;;;;;;2.10;99.90;;;;;;5030704;28;19924;-72
2022/12/18 12:05:27;;;;;;;;;;;2.30;99.90;;;;;;5028080;28;19923;-64
2022/12/18 12:07:52;;;;;;;;;;;2.50;99.90;;;;;;5024861;28;19913;-64
2022/12/18 12:10:24;;;;;;;;;;;2.90;99.90;;;;;;5030018;28;20271;-64
2022/12/18 12:13:09;;;;;;;;;;;3.20;99.90;;;;;;5025839;28;19910;-63
2022/12/18 12:15:40;;;;;;;;;;;3.40;99.90;;;;;;5027560;28;19913;-65
2022/12/18 12:18:26;;;;;;;;;;;3.70;99.90;;;;;;5028408;28;19913;-64
2022/12/18 12:21:06;;;;;;;;;;;3.90;99.90;;;;;;5015209;28;20625;-64
2022/12/18 12:23:40;;;;;;;;;;;4.00;99.90;;;;;;5025109;28;20267;-72
2022/12/18 12:26:31;;;;;;;;;;;4.20;99.90;;;;;;5027540;28;19913;-73
2022/12/18 12:28:59;;;;;;;;;;;4.40;99.90;;;;;;5029081;28;20020;-72
2022/12/18 12:31:37;;;;;;;;;;;4.40;99.90;;;;;;5028970;28;20383;-71
2022/12/18 12:34:12;;;;;;;;;;;4.40;99.90;;;;;;5025398;28;20411;-72
2022/12/18 12:36:56;;;;;;;;;;;4.40;99.90;;;;;;5031191;28;20287;-72
2022/12/18 12:39:23;;;;;;;;;;;4.60;99.90;;;;;;5031797;28;20625;-71
2022/12/18 12:44:36;;;;;;;;;;;4.70;98.90;;;;;;5029678;28;19924;-71
2022/12/18 12:47:03;;;;;;;;;;;4.70;99.10;;;;;;5028380;28;19920;-72
2022/12/18 12:49:33;;;;;;;;;;;4.50;99.80;;;;;;5028768;28;20378;-72
2022/12/18 12:52:07;;;;;;;;;;;4.20;99.90;;;;;;5027966;28;20003;-65
2022/12/18 12:54:32;;;;;;;;;;;3.90;99.90;;;;;;5027601;28;19917;-73
2022/12/18 12:57:12;;;;;;;;;;;3.60;99.90;;;;;;5018063;28;19920;-64
2022/12/18 12:59:56;;;;;;;;;;;3.30;99.90;;;;;;5010990;28;19956;-72
2022/12/18 13:02:40;;;;;;;;;;;3.00;99.90;;;;;;5027957;28;19912;-74
2022/12/18 13:05:09;;;;;;;;;;;2.80;99.90;;;;;;5028308;28;19909;-72
2022/12/18 13:07:41;;;;;;;;;;;2.60;99.90;;;;;;5027876;28;19943;-66
2022/12/18 13:10:16;;;;;;;;;;;2.40;99.90;;;;;;5027506;28;19909;-72
2022/12/18 13:12:58;;;;;;;;;;;2.30;99.90;;;;;;5008090;28;20003;-71
2022/12/18 13:15:32;;;;;;;;;;;2.10;99.90;;;;;;5012294;28;19923;-72
2022/12/18 13:18:07;;;;;;;;;;;2.00;99.90;;;;;;5029197;28;19920;-72
2022/12/18 13:20:33;;;;;;;;;;;1.80;99.90;;;;;;5027904;28;19927;-72
2022/12/18 13:23:02;;;;;;;;;;;1.70;99.90;;;;;;5029061;28;19959;-64
2022/12/18 13:25:31;;;;;;;;;;;1.60;99.90;;;;;;5028524;28;19939;-66
2022/12/18 13:27:57;;;;;;;;;;;1.50;99.90;;;;;;5021600;28;19923;-65
2022/12/18 13:30:31;;;;;;;;;;;1.50;99.90;;;;;;5041535;28;20342;-64
2022/12/18 13:33:22;;;;;;;;;;;1.40;99.90;;;;;;5028672;28;19964;-65
2022/12/18 13:35:47;;;;;;;;;;;1.30;99.90;;;;;;5022235;28;19912;-64
2022/12/18 13:38:23;;;;;;;;;;;1.20;99.90;;;;;;5027625;28;20334;-64
2022/12/18 13:40:49;;;;;;;;;;;1.00;99.90;;;;;;5009120;28;20011;-64
2022/12/18 13:43:18;;;;;;;;;;;0.90;99.90;;;;;;5028300;28;20242;-64
2022/12/18 13:45:45;;;;;;;;;;;0.80;99.90;;;;;;5028940;28;19913;-64
2022/12/18 13:48:14;;;;;;;;;;;0.80;99.90;;;;;;5011731;28;19913;-64
2022/12/18 13:50:40;;;;;;;;;;;0.70;99.90;;;;;;5026213;28;19919;-64
2022/12/18 13:53:05;;;;;;;;;;;0.70;99.90;;;;;;5028064;28;19913;-64
2022/12/18 13:55:31;;;;;;;;;;;0.60;99.90;;;;;;5028121;28;19913;-64
2022/12/18 13:58:03;;;;;;;;;;;0.60;99.90;;;;;;5025099;28;19928;-64
2022/12/18 14:00:29;;;;;;;;;;;0.50;99.90;;;;;;5008864;28;20048;-64
2022/12/18 14:02:55;;;;;;;;;;;0.30;99.90;;;;;;5024082;28;20019;-64
2022/12/18 14:05:27;;;;;;;;;;;0.00;99.90;;;;;;5027877;28;19996;-65
2022/12/18 14:07:53;;;;;;;;;;;-0.10;99.90;;;;;;5021247;28;19917;-65
2022/12/18 14:10:19;;;;;;;;;;;-0.10;99.90;;;;;;4987122;28;19924;-64
2022/12/18 14:12:57;;;;;;;;;;;-0.20;99.90;;;;;;5021171;28;19913;-65
2022/12/18 14:15:28;;;;;;;;;;;-0.30;99.90;;;;;;5020964;28;19925;-65
2022/12/18 14:18:13;;;;;;;;;;;-0.50;99.90;;;;;;5007485;28;19967;-64
2022/12/18 14:20:39;;;;;;;;;;;-0.60;99.90;;;;;;5023771;28;20318;-64
2022/12/18 14:23:04;;;;;;;;;;;-0.70;99.90;;;;;;5024138;28;19959;-64
2022/12/18 14:25:30;;;;;;;;;;;-0.70;99.90;;;;;;5023575;28;19956;-64
2022/12/18 14:28:14;;;;;;;;;;;-1.00;99.90;;;;;;5023757;28;19951;-64
2022/12/18 14:30:43;;;;;;;;;;;-1.10;99.90;;;;;;5007266;28;19921;-64
2022/12/18 14:33:18;;;;;;;;;;;-1.00;99.90;;;;;;5022848;28;19913;-64